sensor_id;sensor_type;location;lat;lon;timestamp;temperature;humidity
51476;DHT22;37554;50.362;7.568;2022-10-30T00:00:54;21.00;60.60
51476;DHT22;37554;50.362;7.568;2022-10-30T00:03:19;21.00;60.60
51476;DHT22;37554;50.362;7.568;2022-10-30T00:05:47;21.00;60.60
51476;DHT22;37554;50.362;7.568;2022-10-30T00:08:15;21.00;60.60
51476;DHT22;37554;50.362;7.568;2022-10-30T00:10:41;21.00;60.60
51476;DHT22;37554;50.362;7.568;2022-10-30T00:13:10;21.00;60.70
51476;DHT22;37554;50.362;7.568;2022-10-30T00:15:37;21.00;60.60
51476;DHT22;37554;50.362;7.568;2022-10-30T00:18:03;21.00;60.60
51476;DHT22;37554;50.362;7.568;2022-10-30T00:20:28;21.00;60.60
51476;DHT22;37554;50.362;7.568;2022-10-30T00:22:54;21.00;60.60
51476;DHT22;37554;50.362;7.568;2022-10-30T00:25:20;21.00;60.60
51476;DHT22;37554;50.362;7.568;2022-10-30T00:27:45;20.90;60.50
51476;DHT22;37554;50.362;7.568;2022-10-30T00:30:11;21.00;60.70
51476;DHT22;37554;50.362;7.568;2022-10-30T00:32:37;21.00;60.60
51476;DHT22;37554;50.362;7.568;2022-10-30T00:35:03;20.90;60.50
51476;DHT22;37554;50.362;7.568;2022-10-30T00:37:28;21.00;60.60
51476;DHT22;37554;50.362;7.568;2022-10-30T00:39:54;21.00;60.60
51476;DHT22;37554;50.362;7.568;2022-10-30T00:42:19;20.90;60.50
51476;DHT22;37554;50.362;7.568;2022-10-30T00:44:50;20.90;60.60
51476;DHT22;37554;50.362;7.568;2022-10-30T00:47:20;20.90;60.50
51476;DHT22;37554;50.362;7.568;2022-10-30T00:49:52;21.00;60.60
51476;DHT22;37554;50.362;7.568;2022-10-30T00:52:21;20.90;60.60
51476;DHT22;37554;50.362;7.568;2022-10-30T00:54:49;20.90;60.50
51476;DHT22;37554;50.362;7.568;2022-10-30T00:57:15;21.00;60.60
51476;DHT22;37554;50.362;7.568;2022-10-30T00:59:41;20.90;60.60
51476;DHT22;37554;50.362;7.568;2022-10-30T01:02:07;21.00;60.60
51476;DHT22;37554;50.362;7.568;2022-10-30T01:04:35;20.90;60.60
51476;DHT22;37554;50.362;7.568;2022-10-30T01:07:08;20.90;60.50
51476;DHT22;37554;50.362;7.568;2022-10-30T01:09:35;20.90;60.60
51476;DHT22;37554;50.362;7.568;2022-10-30T01:12:01;20.90;60.60
51476;DHT22;37554;50.362;7.568;2022-10-30T01:14:26;20.90;60.60
51476;DHT22;37554;50.362;7.568;2022-10-30T01:36:58;20.90;60.60
51476;DHT22;37554;50.362;7.568;2022-10-30T01:39:23;20.90;60.60
51476;DHT22;37554;50.362;7.568;2022-10-30T01:41:49;21.00;60.70
51476;DHT22;37554;50.362;7.568;2022-10-30T01:44:19;20.90;60.60
51476;DHT22;37554;50.362;7.568;2022-10-30T01:54:27;20.90;60.60
51476;DHT22;37554;50.362;7.568;2022-10-30T01:57:15;20.90;60.60
51476;DHT22;37554;50.362;7.568;2022-10-30T01:59:47;20.90;60.60
51476;DHT22;37554;50.362;7.568;2022-10-30T02:02:14;20.90;60.60
51476;DHT22;37554;50.362;7.568;2022-10-30T02:04:41;20.90;60.60
51476;DHT22;37554;50.362;7.568;2022-10-30T02:07:06;20.90;60.60
51476;DHT22;37554;50.362;7.568;2022-10-30T02:09:32;20.90;60.60
51476;DHT22;37554;50.362;7.568;2022-10-30T02:11:58;20.90;60.60
51476;DHT22;37554;50.362;7.568;2022-10-30T02:14:31;20.90;60.60
51476;DHT22;37554;50.362;7.568;2022-10-30T02:17:01;20.90;60.60
51476;DHT22;37554;50.362;7.568;2022-10-30T02:19:28;20.90;60.60
51476;DHT22;37554;50.362;7.568;2022-10-30T02:21:54;20.90;60.60
51476;DHT22;37554;50.362;7.568;2022-10-30T02:24:19;20.90;60.60
51476;DHT22;37554;50.362;7.568;2022-10-30T02:26:45;20.90;60.60
51476;DHT22;37554;50.362;7.568;2022-10-30T02:29:11;20.90;60.60
51476;DHT22;37554;50.362;7.568;2022-10-30T02:31:37;20.90;60.60
51476;DHT22;37554;50.362;7.568;2022-10-30T02:34:03;20.90;60.60
51476;DHT22;37554;50.362;7.568;2022-10-30T02:36:28;20.90;60.60
51476;DHT22;37554;50.362;7.568;2022-10-30T02:38:54;20.90;60.60
51476;DHT22;37554;50.362;7.568;2022-10-30T02:41:21;20.90;60.60
51476;DHT22;37554;50.362;7.568;2022-10-30T02:43:46;20.90;60.60
51476;DHT22;37554;50.362;7.568;2022-10-30T02:46:12;20.90;60.60
51476;DHT22;37554;50.362;7.568;2022-10-30T02:48:38;20.90;60.60
51476;DHT22;37554;50.362;7.568;2022-10-30T02:51:03;20.90;60.60
51476;DHT22;37554;50.362;7.568;2022-10-30T02:53:29;20.90;60.60
51476;DHT22;37554;50.362;7.568;2022-10-30T02:55:55;20.90;60.60
51476;DHT22;37554;50.362;7.568;2022-10-30T02:58:21;20.90;60.60
51476;DHT22;37554;50.362;7.568;2022-10-30T03:00:47;20.90;60.60
51476;DHT22;37554;50.362;7.568;2022-10-30T03:03:12;20.90;60.60
51476;DHT22;37554;50.362;7.568;2022-10-30T03:05:38;20.90;60.60
51476;DHT22;37554;50.362;7.568;2022-10-30T03:08:03;20.90;60.60
51476;DHT22;37554;50.362;7.568;2022-10-30T03:10:29;20.90;60.60
51476;DHT22;37554;50.362;7.568;2022-10-30T03:12:55;20.90;60.60
51476;DHT22;37554;50.362;7.568;2022-10-30T03:15:20;20.90;61.30
51476;DHT22;37554;50.362;7.568;2022-10-30T03:17:47;20.90;60.60
51476;DHT22;37554;50.362;7.568;2022-10-30T03:20:14;20.90;60.60
51476;DHT22;37554;50.362;7.568;2022-10-30T03:22:39;20.90;60.50
51476;DHT22;37554;50.362;7.568;2022-10-30T03:25:05;20.90;60.60
51476;DHT22;37554;50.362;7.568;2022-10-30T03:27:31;20.90;60.60
51476;DHT22;37554;50.362;7.568;2022-10-30T03:29:56;20.90;60.50
51476;DHT22;37554;50.362;7.568;2022-10-30T03:32:22;20.90;60.60
51476;DHT22;37554;50.362;7.568;2022-10-30T03:34:47;20.90;60.60
51476;DHT22;37554;50.362;7.568;2022-10-30T03:37:13;20.90;60.50
51476;DHT22;37554;50.362;7.568;2022-10-30T03:39:38;20.90;60.50
51476;DHT22;37554;50.362;7.568;2022-10-30T03:42:04;20.90;60.50
51476;DHT22;37554;50.362;7.568;2022-10-30T03:44:30;20.90;60.50
51476;DHT22;37554;50.362;7.568;2022-10-30T03:46:55;20.90;60.50
51476;DHT22;37554;50.362;7.568;2022-10-30T03:49:22;20.90;60.50
51476;DHT22;37554;50.362;7.568;2022-10-30T03:51:48;20.90;60.50
51476;DHT22;37554;50.362;7.568;2022-10-30T03:54:13;20.90;60.50
51476;DHT22;37554;50.362;7.568;2022-10-30T03:56:39;20.90;60.50
51476;DHT22;37554;50.362;7.568;2022-10-30T03:59:04;20.90;60.50
51476;DHT22;37554;50.362;7.568;2022-10-30T04:01:30;20.90;60.50
51476;DHT22;37554;50.362;7.568;2022-10-30T04:03:55;20.90;60.50
51476;DHT22;37554;50.362;7.568;2022-10-30T04:06:21;20.80;60.60
51476;DHT22;37554;50.362;7.568;2022-10-30T04:08:47;20.90;60.60
51476;DHT22;37554;50.362;7.568;2022-10-30T04:11:12;20.90;60.50
51476;DHT22;37554;50.362;7.568;2022-10-30T04:13:38;20.90;60.50
51476;DHT22;37554;50.362;7.568;2022-10-30T04:16:04;20.90;60.50
51476;DHT22;37554;50.362;7.568;2022-10-30T04:18:31;20.80;60.50
51476;DHT22;37554;50.362;7.568;2022-10-30T04:20:58;20.90;60.50
51476;DHT22;37554;50.362;7.568;2022-10-30T04:23:24;20.90;60.50
51476;DHT22;37554;50.362;7.568;2022-10-30T04:25:49;20.80;60.50
51476;DHT22;37554;50.362;7.568;2022-10-30T04:28:17;20.80;60.50
51476;DHT22;37554;50.362;7.568;2022-10-30T04:30:45;20.80;60.50
51476;DHT22;37554;50.362;7.568;2022-10-30T04:33:12;20.90;60.50
51476;DHT22;37554;50.362;7.568;2022-10-30T04:35:38;20.80;60.50
51476;DHT22;37554;50.362;7.568;2022-10-30T04:38:07;20.80;60.50
51476;DHT22;37554;50.362;7.568;2022-10-30T04:40:34;20.80;60.50
51476;DHT22;37554;50.362;7.568;2022-10-30T04:43:01;20.90;60.60
51476;DHT22;37554;50.362;7.568;2022-10-30T04:45:29;20.80;60.50
51476;DHT22;37554;50.362;7.568;2022-10-30T04:48:14;20.80;60.50
51476;DHT22;37554;50.362;7.568;2022-10-30T04:50:41;20.80;60.50
51476;DHT22;37554;50.362;7.568;2022-10-30T04:53:14;20.80;60.50
51476;DHT22;37554;50.362;7.568;2022-10-30T04:55:41;20.80;60.50
51476;DHT22;37554;50.362;7.568;2022-10-30T04:58:08;20.80;60.50
51476;DHT22;37554;50.362;7.568;2022-10-30T05:00:35;20.80;60.50
51476;DHT22;37554;50.362;7.568;2022-10-30T05:03:01;20.80;60.50
51476;DHT22;37554;50.362;7.568;2022-10-30T05:05:28;20.90;60.50
51476;DHT22;37554;50.362;7.568;2022-10-30T05:07:54;20.80;60.50
51476;DHT22;37554;50.362;7.568;2022-10-30T05:10:20;20.80;60.50
51476;DHT22;37554;50.362;7.568;2022-10-30T05:12:46;20.80;60.50
51476;DHT22;37554;50.362;7.568;2022-10-30T05:15:12;20.80;60.50
51476;DHT22;37554;50.362;7.568;2022-10-30T05:17:38;20.80;60.50
51476;DHT22;37554;50.362;7.568;2022-10-30T05:20:05;20.80;60.50
51476;DHT22;37554;50.362;7.568;2022-10-30T05:22:30;20.80;60.50
51476;DHT22;37554;50.362;7.568;2022-10-30T05:24:56;20.80;60.50
51476;DHT22;37554;50.362;7.568;2022-10-30T05:27:22;20.80;60.50
51476;DHT22;37554;50.362;7.568;2022-10-30T05:29:47;20.80;60.50
51476;DHT22;37554;50.362;7.568;2022-10-30T05:32:13;20.80;60.50
51476;DHT22;37554;50.362;7.568;2022-10-30T05:34:38;20.80;60.50
51476;DHT22;37554;50.362;7.568;2022-10-30T05:37:04;20.80;60.50
51476;DHT22;37554;50.362;7.568;2022-10-30T05:39:29;20.80;60.50
51476;DHT22;37554;50.362;7.568;2022-10-30T05:41:55;20.80;60.50
51476;DHT22;37554;50.362;7.568;2022-10-30T05:44:20;20.80;60.50
51476;DHT22;37554;50.362;7.568;2022-10-30T05:46:46;20.80;60.50
51476;DHT22;37554;50.362;7.568;2022-10-30T05:49:12;20.80;60.50
51476;DHT22;37554;50.362;7.568;2022-10-30T05:51:37;20.80;60.40
51476;DHT22;37554;50.362;7.568;2022-10-30T05:54:03;20.80;60.50
51476;DHT22;37554;50.362;7.568;2022-10-30T05:56:29;20.80;60.50
51476;DHT22;37554;50.362;7.568;2022-10-30T05:58:54;20.80;60.50
51476;DHT22;37554;50.362;7.568;2022-10-30T06:01:20;20.80;60.40
51476;DHT22;37554;50.362;7.568;2022-10-30T06:03:46;20.80;60.40
51476;DHT22;37554;50.362;7.568;2022-10-30T06:06:11;20.80;60.50
51476;DHT22;37554;50.362;7.568;2022-10-30T06:08:37;20.80;60.50
51476;DHT22;37554;50.362;7.568;2022-10-30T06:11:02;20.80;60.40
51476;DHT22;37554;50.362;7.568;2022-10-30T06:13:28;20.80;60.40
51476;DHT22;37554;50.362;7.568;2022-10-30T06:15:54;20.80;60.40
51476;DHT22;37554;50.362;7.568;2022-10-30T06:18:21;20.80;60.50
51476;DHT22;37554;50.362;7.568;2022-10-30T06:20:46;20.80;60.50
51476;DHT22;37554;50.362;7.568;2022-10-30T06:23:12;20.80;60.40
51476;DHT22;37554;50.362;7.568;2022-10-30T06:25:37;20.80;60.40
51476;DHT22;37554;50.362;7.568;2022-10-30T06:28:03;20.80;60.50
51476;DHT22;37554;50.362;7.568;2022-10-30T06:30:29;20.80;60.50
51476;DHT22;37554;50.362;7.568;2022-10-30T06:32:59;20.80;60.40
51476;DHT22;37554;50.362;7.568;2022-10-30T06:35:26;20.80;60.40
51476;DHT22;37554;50.362;7.568;2022-10-30T06:37:53;20.80;60.40
51476;DHT22;37554;50.362;7.568;2022-10-30T06:40:20;20.80;60.40
51476;DHT22;37554;50.362;7.568;2022-10-30T06:42:47;20.80;60.40
51476;DHT22;37554;50.362;7.568;2022-10-30T06:45:15;20.80;60.40
51476;DHT22;37554;50.362;7.568;2022-10-30T06:47:41;20.80;60.40
51476;DHT22;37554;50.362;7.568;2022-10-30T06:50:10;20.80;60.40
51476;DHT22;37554;50.362;7.568;2022-10-30T06:52:36;20.80;60.40
51476;DHT22;37554;50.362;7.568;2022-10-30T06:55:02;20.80;60.40
51476;DHT22;37554;50.362;7.568;2022-10-30T06:57:27;20.80;60.40
51476;DHT22;37554;50.362;7.568;2022-10-30T06:59:53;20.80;60.40
51476;DHT22;37554;50.362;7.568;2022-10-30T07:02:19;20.80;60.40
51476;DHT22;37554;50.362;7.568;2022-10-30T07:04:44;20.80;60.40
51476;DHT22;37554;50.362;7.568;2022-10-30T07:07:11;20.80;60.30
51476;DHT22;37554;50.362;7.568;2022-10-30T07:09:37;20.80;60.30
51476;DHT22;37554;50.362;7.568;2022-10-30T07:12:03;20.80;60.30
51476;DHT22;37554;50.362;7.568;2022-10-30T07:14:28;20.80;60.30
51476;DHT22;37554;50.362;7.568;2022-10-30T07:16:54;20.80;60.30
51476;DHT22;37554;50.362;7.568;2022-10-30T07:19:21;20.80;60.30
51476;DHT22;37554;50.362;7.568;2022-10-30T07:21:46;20.80;60.30
51476;DHT22;37554;50.362;7.568;2022-10-30T07:24:12;20.80;60.40
51476;DHT22;37554;50.362;7.568;2022-10-30T07:26:38;20.80;60.30
51476;DHT22;37554;50.362;7.568;2022-10-30T07:29:04;20.80;60.30
51476;DHT22;37554;50.362;7.568;2022-10-30T07:31:30;20.80;60.30
51476;DHT22;37554;50.362;7.568;2022-10-30T07:33:56;20.80;60.30
51476;DHT22;37554;50.362;7.568;2022-10-30T07:36:21;20.80;60.30
51476;DHT22;37554;50.362;7.568;2022-10-30T07:38:47;20.80;60.20
51476;DHT22;37554;50.362;7.568;2022-10-30T07:41:13;20.80;60.20
51476;DHT22;37554;50.362;7.568;2022-10-30T07:43:39;20.90;60.20
51476;DHT22;37554;50.362;7.568;2022-10-30T07:46:07;20.90;60.10
51476;DHT22;37554;50.362;7.568;2022-10-30T07:48:32;20.90;60.00
51476;DHT22;37554;50.362;7.568;2022-10-30T07:50:58;20.90;59.90
51476;DHT22;37554;50.362;7.568;2022-10-30T07:53:23;21.00;59.90
51476;DHT22;37554;50.362;7.568;2022-10-30T07:55:49;21.00;59.80
51476;DHT22;37554;50.362;7.568;2022-10-30T07:58:14;21.00;59.70
51476;DHT22;37554;50.362;7.568;2022-10-30T08:00:40;21.10;59.60
51476;DHT22;37554;50.362;7.568;2022-10-30T08:03:05;21.10;59.60
51476;DHT22;37554;50.362;7.568;2022-10-30T08:05:31;21.10;59.50
51476;DHT22;37554;50.362;7.568;2022-10-30T08:07:57;21.10;59.40
51476;DHT22;37554;50.362;7.568;2022-10-30T08:10:23;21.20;59.30
51476;DHT22;37554;50.362;7.568;2022-10-30T08:12:48;21.20;59.20
51476;DHT22;37554;50.362;7.568;2022-10-30T08:15:14;21.30;59.20
51476;DHT22;37554;50.362;7.568;2022-10-30T08:17:41;21.30;59.10
51476;DHT22;37554;50.362;7.568;2022-10-30T08:20:07;21.30;59.10
51476;DHT22;37554;50.362;7.568;2022-10-30T08:22:33;21.30;59.00
51476;DHT22;37554;50.362;7.568;2022-10-30T08:24:58;21.40;59.00
51476;DHT22;37554;50.362;7.568;2022-10-30T08:27:24;21.40;59.00
51476;DHT22;37554;50.362;7.568;2022-10-30T08:29:50;21.40;58.90
51476;DHT22;37554;50.362;7.568;2022-10-30T08:32:15;21.50;58.90
51476;DHT22;37554;50.362;7.568;2022-10-30T08:34:41;21.50;58.80
51476;DHT22;37554;50.362;7.568;2022-10-30T08:37:06;21.50;58.80
51476;DHT22;37554;50.362;7.568;2022-10-30T08:39:32;21.50;58.70
51476;DHT22;37554;50.362;7.568;2022-10-30T08:41:58;21.50;58.70
51476;DHT22;37554;50.362;7.568;2022-10-30T08:44:24;21.60;58.70
51476;DHT22;37554;50.362;7.568;2022-10-30T08:46:50;21.60;58.60
51476;DHT22;37554;50.362;7.568;2022-10-30T08:49:15;21.60;58.50
51476;DHT22;37554;50.362;7.568;2022-10-30T08:51:41;21.60;58.40
51476;DHT22;37554;50.362;7.568;2022-10-30T08:54:08;21.60;58.30
51476;DHT22;37554;50.362;7.568;2022-10-30T08:56:34;21.70;58.30
51476;DHT22;37554;50.362;7.568;2022-10-30T08:59:00;21.70;58.20
51476;DHT22;37554;50.362;7.568;2022-10-30T09:01:25;21.80;58.20
51476;DHT22;37554;50.362;7.568;2022-10-30T09:03:51;21.80;58.20
51476;DHT22;37554;50.362;7.568;2022-10-30T09:06:16;21.90;58.10
51476;DHT22;37554;50.362;7.568;2022-10-30T09:08:42;21.90;58.00
51476;DHT22;37554;50.362;7.568;2022-10-30T09:11:08;21.90;58.00
51476;DHT22;37554;50.362;7.568;2022-10-30T09:13:33;21.90;57.90
51476;DHT22;37554;50.362;7.568;2022-10-30T09:16:00;22.00;57.90
51476;DHT22;37554;50.362;7.568;2022-10-30T09:18:28;22.00;57.80
51476;DHT22;37554;50.362;7.568;2022-10-30T09:20:53;22.00;57.70
51476;DHT22;37554;50.362;7.568;2022-10-30T09:23:19;22.10;57.90
51476;DHT22;37554;50.362;7.568;2022-10-30T09:25:45;22.10;57.70
51476;DHT22;37554;50.362;7.568;2022-10-30T09:28:10;22.10;57.70
51476;DHT22;37554;50.362;7.568;2022-10-30T09:30:36;22.10;57.60
51476;DHT22;37554;50.362;7.568;2022-10-30T09:33:01;22.10;57.60
51476;DHT22;37554;50.362;7.568;2022-10-30T09:35:28;22.10;57.60
51476;DHT22;37554;50.362;7.568;2022-10-30T09:37:54;22.20;57.60
51476;DHT22;37554;50.362;7.568;2022-10-30T09:40:41;22.20;57.60
51476;DHT22;37554;50.362;7.568;2022-10-30T09:46:14;22.20;57.40
51476;DHT22;37554;50.362;7.568;2022-10-30T09:48:46;22.30;57.30
51476;DHT22;37554;50.362;7.568;2022-10-30T09:56:44;22.40;57.10
51476;DHT22;37554;50.362;7.568;2022-10-30T10:02:00;22.40;57.10
51476;DHT22;37554;50.362;7.568;2022-10-30T10:04:35;22.40;56.90
51476;DHT22;37554;50.362;7.568;2022-10-30T10:07:31;22.40;57.10
51476;DHT22;37554;50.362;7.568;2022-10-30T10:10:03;22.40;56.90
51476;DHT22;37554;50.362;7.568;2022-10-30T10:12:42;22.40;57.10
51476;DHT22;37554;50.362;7.568;2022-10-30T10:15:13;22.40;57.10
51476;DHT22;37554;50.362;7.568;2022-10-30T10:17:42;22.40;57.10
51476;DHT22;37554;50.362;7.568;2022-10-30T10:20:35;22.40;57.10
51476;DHT22;37554;50.362;7.568;2022-10-30T10:23:18;22.50;56.90
51476;DHT22;37554;50.362;7.568;2022-10-30T10:25:51;22.50;56.90
51476;DHT22;37554;50.362;7.568;2022-10-30T10:28:28;22.50;56.80
51476;DHT22;37554;50.362;7.568;2022-10-30T10:31:18;22.50;56.80
51476;DHT22;37554;50.362;7.568;2022-10-30T10:36:47;22.50;56.70
51476;DHT22;37554;50.362;7.568;2022-10-30T10:42:01;22.60;56.70
51476;DHT22;37554;50.362;7.568;2022-10-30T10:44:37;22.60;56.70
51476;DHT22;37554;50.362;7.568;2022-10-30T10:50:13;22.60;56.70
51476;DHT22;37554;50.362;7.568;2022-10-30T10:53:12;22.70;56.60
51476;DHT22;37554;50.362;7.568;2022-10-30T10:55:40;22.70;56.40
51476;DHT22;37554;50.362;7.568;2022-10-30T10:58:33;22.70;56.40
51476;DHT22;37554;50.362;7.568;2022-10-30T11:01:00;22.80;56.30
51476;DHT22;37554;50.362;7.568;2022-10-30T11:08:38;22.90;56.30
51476;DHT22;37554;50.362;7.568;2022-10-30T11:11:05;22.90;56.20
51476;DHT22;37554;50.362;7.568;2022-10-30T11:13:38;22.90;56.20
51476;DHT22;37554;50.362;7.568;2022-10-30T11:18:52;22.90;56.80
51476;DHT22;37554;50.362;7.568;2022-10-30T11:21:22;23.00;56.10
51476;DHT22;37554;50.362;7.568;2022-10-30T11:23:49;23.00;56.00
51476;DHT22;37554;50.362;7.568;2022-10-30T11:29:14;23.00;55.90
51476;DHT22;37554;50.362;7.568;2022-10-30T11:31:44;23.10;55.70
51476;DHT22;37554;50.362;7.568;2022-10-30T11:36:45;23.00;55.80
51476;DHT22;37554;50.362;7.568;2022-10-30T11:39:20;23.00;55.90
51476;DHT22;37554;50.362;7.568;2022-10-30T11:44:41;23.00;56.00
51476;DHT22;37554;50.362;7.568;2022-10-30T11:47:08;22.90;56.10
51476;DHT22;37554;50.362;7.568;2022-10-30T11:49:48;22.90;56.20
51476;DHT22;37554;50.362;7.568;2022-10-30T11:52:22;22.80;56.20
51476;DHT22;37554;50.362;7.568;2022-10-30T11:55:02;22.70;56.30
51476;DHT22;37554;50.362;7.568;2022-10-30T11:57:36;22.70;56.40
51476;DHT22;37554;50.362;7.568;2022-10-30T12:00:06;22.70;56.80
51476;DHT22;37554;50.362;7.568;2022-10-30T12:02:41;22.60;56.30
51476;DHT22;37554;50.362;7.568;2022-10-30T12:11:00;22.50;56.60
51476;DHT22;37554;50.362;7.568;2022-10-30T12:13:37;22.60;56.70
51476;DHT22;37554;50.362;7.568;2022-10-30T12:18:31;22.50;56.80
51476;DHT22;37554;50.362;7.568;2022-10-30T12:20:58;22.50;56.90
51476;DHT22;37554;50.362;7.568;2022-10-30T12:23:26;22.50;56.90
51476;DHT22;37554;50.362;7.568;2022-10-30T12:26:09;22.40;56.90
51476;DHT22;37554;50.362;7.568;2022-10-30T12:28:35;22.50;57.00
51476;DHT22;37554;50.362;7.568;2022-10-30T12:34:04;22.50;56.90
51476;DHT22;37554;50.362;7.568;2022-10-30T12:36:34;22.50;56.90
51476;DHT22;37554;50.362;7.568;2022-10-30T12:39:13;22.50;56.90
51476;DHT22;37554;50.362;7.568;2022-10-30T12:41:44;22.50;56.70
51476;DHT22;37554;50.362;7.568;2022-10-30T12:44:26;22.60;56.70
51476;DHT22;37554;50.362;7.568;2022-10-30T12:46:58;22.70;56.60
51476;DHT22;37554;50.362;7.568;2022-10-30T12:49:32;22.70;56.50
51476;DHT22;37554;50.362;7.568;2022-10-30T12:52:06;22.70;56.40
51476;DHT22;37554;50.362;7.568;2022-10-30T12:54:51;22.70;56.40
51476;DHT22;37554;50.362;7.568;2022-10-30T12:57:27;22.70;56.40
51476;DHT22;37554;50.362;7.568;2022-10-30T13:00:03;22.70;56.40
51476;DHT22;37554;50.362;7.568;2022-10-30T13:02:35;22.70;56.50
51476;DHT22;37554;50.362;7.568;2022-10-30T13:08:06;22.70;56.60
51476;DHT22;37554;50.362;7.568;2022-10-30T13:10:45;22.70;56.40
51476;DHT22;37554;50.362;7.568;2022-10-30T13:13:18;22.70;56.50
51476;DHT22;37554;50.362;7.568;2022-10-30T13:15:49;22.70;56.60
51476;DHT22;37554;50.362;7.568;2022-10-30T13:18:17;22.60;56.60
51476;DHT22;37554;50.362;7.568;2022-10-30T13:20:54;22.60;56.70
51476;DHT22;37554;50.362;7.568;2022-10-30T13:23:27;22.60;56.70
51476;DHT22;37554;50.362;7.568;2022-10-30T13:28:58;22.50;56.90
51476;DHT22;37554;50.362;7.568;2022-10-30T13:32:02;22.40;57.00
51476;DHT22;37554;50.362;7.568;2022-10-30T13:34:28;22.40;57.00
51476;DHT22;37554;50.362;7.568;2022-10-30T13:39:41;22.40;57.10
51476;DHT22;37554;50.362;7.568;2022-10-30T13:42:40;22.40;57.20
51476;DHT22;37554;50.362;7.568;2022-10-30T13:45:39;22.40;57.10
51476;DHT22;37554;50.362;7.568;2022-10-30T13:48:15;22.30;57.10
51476;DHT22;37554;50.362;7.568;2022-10-30T13:51:04;22.30;57.10
51476;DHT22;37554;50.362;7.568;2022-10-30T13:53:35;22.30;57.20
51476;DHT22;37554;50.362;7.568;2022-10-30T13:56:02;22.30;57.30
51476;DHT22;37554;50.362;7.568;2022-10-30T13:58:35;22.30;57.40
51476;DHT22;37554;50.362;7.568;2022-10-30T14:20:39;22.30;57.20
51476;DHT22;37554;50.362;7.568;2022-10-30T14:23:07;22.30;57.30
51476;DHT22;37554;50.362;7.568;2022-10-30T14:25:37;22.30;57.40
51476;DHT22;37554;50.362;7.568;2022-10-30T14:28:02;22.20;57.30
51476;DHT22;37554;50.362;7.568;2022-10-30T14:30:28;22.20;57.40
51476;DHT22;37554;50.362;7.568;2022-10-30T14:32:54;22.20;58.10
51476;DHT22;37554;50.362;7.568;2022-10-30T14:35:37;22.20;57.50
51476;DHT22;37554;50.362;7.568;2022-10-30T14:40:39;22.10;57.60
51476;DHT22;37554;50.362;7.568;2022-10-30T14:43:23;22.10;57.60
51476;DHT22;37554;50.362;7.568;2022-10-30T14:46:09;22.10;57.60
51476;DHT22;37554;50.362;7.568;2022-10-30T14:51:20;22.10;57.70
51476;DHT22;37554;50.362;7.568;2022-10-30T14:54:10;22.10;57.80
51476;DHT22;37554;50.362;7.568;2022-10-30T14:56:48;22.00;57.80
51476;DHT22;37554;50.362;7.568;2022-10-30T15:07:28;21.90;58.00
51476;DHT22;37554;50.362;7.568;2022-10-30T15:10:34;21.90;58.10
51476;DHT22;37554;50.362;7.568;2022-10-30T15:13:19;21.90;58.20
51476;DHT22;37554;50.362;7.568;2022-10-30T15:15:56;21.90;58.20
51476;DHT22;37554;50.362;7.568;2022-10-30T15:18:22;21.90;58.20
51476;DHT22;37554;50.362;7.568;2022-10-30T15:20:52;21.90;58.30
51476;DHT22;37554;50.362;7.568;2022-10-30T15:23:26;21.80;58.30
51476;DHT22;37554;50.362;7.568;2022-10-30T15:25:54;21.80;58.30
51476;DHT22;37554;50.362;7.568;2022-10-30T15:28:31;21.80;58.30
51476;DHT22;37554;50.362;7.568;2022-10-30T15:31:06;21.80;58.50
51476;DHT22;37554;50.362;7.568;2022-10-30T15:33:34;21.80;58.50
51476;DHT22;37554;50.362;7.568;2022-10-30T15:36:02;21.80;58.50
51476;DHT22;37554;50.362;7.568;2022-10-30T15:38:28;21.80;58.50
51476;DHT22;37554;50.362;7.568;2022-10-30T15:40:59;21.80;58.50
51476;DHT22;37554;50.362;7.568;2022-10-30T15:43:32;21.70;58.50
51476;DHT22;37554;50.362;7.568;2022-10-30T15:45:59;21.70;58.50
51476;DHT22;37554;50.362;7.568;2022-10-30T15:48:27;21.70;58.50
51476;DHT22;37554;50.362;7.568;2022-10-30T15:51:02;21.70;58.60
51476;DHT22;37554;50.362;7.568;2022-10-30T15:53:39;21.70;58.70
51476;DHT22;37554;50.362;7.568;2022-10-30T15:56:37;21.70;58.70
51476;DHT22;37554;50.362;7.568;2022-10-30T15:59:06;21.70;58.70
51476;DHT22;37554;50.362;7.568;2022-10-30T16:01:35;21.70;58.80
51476;DHT22;37554;50.362;7.568;2022-10-30T16:04:21;21.60;58.70
51476;DHT22;37554;50.362;7.568;2022-10-30T16:06:50;21.60;58.80
51476;DHT22;37554;50.362;7.568;2022-10-30T16:09:16;21.60;58.80
51476;DHT22;37554;50.362;7.568;2022-10-30T16:11:42;21.60;58.80
51476;DHT22;37554;50.362;7.568;2022-10-30T16:14:12;21.60;58.80
51476;DHT22;37554;50.362;7.568;2022-10-30T16:16:39;21.60;58.90
51476;DHT22;37554;50.362;7.568;2022-10-30T16:19:05;21.60;58.90
51476;DHT22;37554;50.362;7.568;2022-10-30T16:21:31;21.60;58.90
51476;DHT22;37554;50.362;7.568;2022-10-30T16:24:00;21.60;58.90
51476;DHT22;37554;50.362;7.568;2022-10-30T16:28:52;21.60;59.00
51476;DHT22;37554;50.362;7.568;2022-10-30T16:31:17;21.60;59.00
51476;DHT22;37554;50.362;7.568;2022-10-30T16:33:45;21.50;59.00
51476;DHT22;37554;50.362;7.568;2022-10-30T16:36:14;21.60;59.00
51476;DHT22;37554;50.362;7.568;2022-10-30T16:38:43;21.60;59.00
51476;DHT22;37554;50.362;7.568;2022-10-30T16:41:10;21.60;59.00
51476;DHT22;37554;50.362;7.568;2022-10-30T16:43:39;21.50;59.00
51476;DHT22;37554;50.362;7.568;2022-10-30T16:48:36;21.60;59.20
51476;DHT22;37554;50.362;7.568;2022-10-30T16:51:02;21.50;59.00
51476;DHT22;37554;50.362;7.568;2022-10-30T16:53:29;21.50;59.00
51476;DHT22;37554;50.362;7.568;2022-10-30T16:55:56;21.50;59.10
51476;DHT22;37554;50.362;7.568;2022-10-30T16:58:28;21.50;59.10
51476;DHT22;37554;50.362;7.568;2022-10-30T17:01:05;21.50;59.10
51476;DHT22;37554;50.362;7.568;2022-10-30T17:03:35;21.50;59.10
51476;DHT22;37554;50.362;7.568;2022-10-30T17:06:05;21.50;59.20
51476;DHT22;37554;50.362;7.568;2022-10-30T17:08:41;21.50;59.20
51476;DHT22;37554;50.362;7.568;2022-10-30T17:11:40;21.50;59.20
51476;DHT22;37554;50.362;7.568;2022-10-30T17:14:20;21.50;59.20
51476;DHT22;37554;50.362;7.568;2022-10-30T17:16:57;21.50;59.20
51476;DHT22;37554;50.362;7.568;2022-10-30T17:21:58;21.50;59.30
51476;DHT22;37554;50.362;7.568;2022-10-30T17:24:32;21.50;59.20
51476;DHT22;37554;50.362;7.568;2022-10-30T17:27:01;21.50;59.30
51476;DHT22;37554;50.362;7.568;2022-10-30T17:34:42;21.50;59.30
51476;DHT22;37554;50.362;7.568;2022-10-30T17:37:07;21.40;59.20
51476;DHT22;37554;50.362;7.568;2022-10-30T17:39:33;21.40;59.30
51476;DHT22;37554;50.362;7.568;2022-10-30T17:41:59;21.40;59.30
51476;DHT22;37554;50.362;7.568;2022-10-30T17:44:25;21.40;59.30
51476;DHT22;37554;50.362;7.568;2022-10-30T17:46:51;21.40;59.30
51476;DHT22;37554;50.362;7.568;2022-10-30T17:49:30;21.40;59.30
51476;DHT22;37554;50.362;7.568;2022-10-30T17:51:57;21.40;59.30